createdAt,value
2017-07-03T00:01:37.825Z,90.40
2017-07-03T00:04:05.292Z,90.40
2017-07-03T00:06:32.792Z,90.70
2017-07-03T00:09:01.028Z,90.40
2017-07-03T00:11:29.285Z,90.50
2017-07-03T00:13:56.782Z,90.50
2017-07-03T00:16:25.021Z,90.60
2017-07-03T00:18:52.489Z,90.60
2017-07-03T00:21:19.980Z,90.70
2017-07-03T00:23:48.213Z,90.50
2017-07-03T00:26:15.693Z,90.50
2017-07-03T00:28:43.190Z,90.70
2017-07-03T00:31:10.724Z,90.50
2017-07-03T00:33:38.962Z,90.70
2017-07-03T00:36:06.456Z,90.70
2017-07-03T00:38:34.694Z,90.30
2017-07-03T00:41:02.165Z,90.30
2017-07-03T00:43:29.652Z,90.50
2017-07-03T00:45:57.885Z,90.60
2017-07-03T00:48:25.352Z,90.60
2017-07-03T00:50:52.843Z,90.50
2017-07-03T00:53:20.332Z,90.60
2017-07-03T00:55:47.801Z,90.60
2017-07-03T00:58:15.294Z,90.70
2017-07-03T01:00:42.981Z,90.50
2017-07-03T01:03:11.212Z,90.60
2017-07-03T01:05:38.950Z,90.60
2017-07-03T01:08:06.441Z,90.50
2017-07-03T01:10:33.909Z,90.70
2017-07-03T01:13:01.549Z,90.60
2017-07-03T01:15:29.020Z,90.50
2017-07-03T01:17:56.488Z,90.40
2017-07-03T01:20:24.357Z,90.40
2017-07-03T01:22:52.593Z,90.80
2017-07-03T01:25:20.116Z,90.60
2017-07-03T01:27:47.905Z,90.70
2017-07-03T01:30:15.377Z,90.50
2017-07-03T01:32:42.845Z,90.50
2017-07-03T01:35:10.340Z,90.30
2017-07-03T01:37:38.577Z,90.20
2017-07-03T01:40:06.313Z,90.20
2017-07-03T01:42:33.845Z,90.20
2017-07-03T01:45:01.313Z,90.20
2017-07-03T01:47:29.089Z,90.40
2017-07-03T01:49:56.853Z,90.40
2017-07-03T01:52:24.325Z,90.50
2017-07-03T01:54:51.797Z,90.40
2017-07-03T01:57:19.286Z,90.30
2017-07-03T01:59:47.805Z,90.50
2017-07-03T02:02:15.570Z,90.50
2017-07-03T02:04:43.281Z,90.50
2017-07-03T02:07:11.091Z,90.40
2017-07-03T02:09:38.704Z,90.30
2017-07-03T02:12:06.192Z,90.50
2017-07-03T02:14:33.872Z,90.60
2017-07-03T02:17:01.403Z,90.50
2017-07-03T02:19:29.661Z,90.70
2017-07-03T02:21:57.477Z,90.70
2017-07-03T02:24:24.952Z,90.80
2017-07-03T02:26:52.440Z,90.70
2017-07-03T02:29:20.678Z,90.70
2017-07-03T02:31:48.148Z,90.70
2017-07-03T02:34:15.641Z,90.60
2017-07-03T02:36:43.876Z,90.60
2017-07-03T02:39:11.348Z,90.50
2017-07-03T02:41:38.841Z,90.60
2017-07-03T02:44:06.313Z,90.70
2017-07-03T02:46:33.790Z,90.80
2017-07-03T02:49:01.289Z,90.70
2017-07-03T02:51:29.528Z,90.90
2017-07-03T02:53:57.216Z,90.70
2017-07-03T02:56:24.713Z,90.70
2017-07-03T02:58:52.186Z,90.60
2017-07-03T03:01:19.663Z,90.80
2017-07-03T03:03:47.165Z,90.80
2017-07-03T03:06:15.408Z,90.70
2017-07-03T03:08:42.876Z,90.70
2017-07-03T03:11:10.369Z,90.70
2017-07-03T03:13:37.841Z,90.70
2017-07-03T03:16:05.382Z,90.50
2017-07-03T03:18:32.885Z,90.60
2017-07-03T03:21:01.057Z,90.60
2017-07-03T03:23:28.524Z,90.60
2017-07-03T03:25:56.029Z,90.50
2017-07-03T03:28:23.551Z,90.60
2017-07-03T03:30:51.277Z,90.70
2017-07-03T03:33:18.773Z,90.60
2017-07-03T03:35:46.244Z,90.50
2017-07-03T03:38:14.482Z,90.70
2017-07-03T03:40:41.973Z,90.60
2017-07-03T03:43:10.221Z,90.50
2017-07-03T03:45:37.696Z,90.60
2017-07-03T03:48:05.195Z,90.60
2017-07-03T03:50:32.669Z,90.60
2017-07-03T03:53:00.149Z,90.60
2017-07-03T03:55:27.641Z,90.60
2017-07-03T03:57:56.164Z,90.60
2017-07-03T04:00:23.638Z,90.60
2017-07-03T04:02:51.129Z,90.70
2017-07-03T04:05:18.608Z,90.60
2017-07-03T04:07:46.082Z,90.50
2017-07-03T04:10:13.750Z,90.60
2017-07-03T04:12:41.481Z,90.50
2017-07-03T04:15:09.724Z,90.60
2017-07-03T04:17:37.234Z,90.90
2017-07-03T04:20:04.713Z,90.50
2017-07-03T04:22:32.473Z,90.80
2017-07-03T04:24:59.977Z,90.50
2017-07-03T04:27:27.453Z,90.50
2017-07-03T04:29:55.695Z,90.00
2017-07-03T04:32:23.201Z,90.00
2017-07-03T04:34:50.674Z,90.40
2017-07-03T04:37:18.145Z,90.20
2017-07-03T04:39:46.057Z,90.10
2017-07-03T04:42:14.582Z,90.00
2017-07-03T04:44:42.057Z,90.00
2017-07-03T04:47:09.548Z,90.10
2017-07-03T04:49:37.830Z,89.60
2017-07-03T04:52:06.072Z,90.00
2017-07-03T04:54:33.561Z,90.00
2017-07-03T04:57:01.805Z,89.40
2017-07-03T04:59:29.293Z,89.40
2017-07-03T05:01:57.565Z,88.80
2017-07-03T05:04:25.804Z,90.00
2017-07-03T05:06:53.276Z,89.50
2017-07-03T05:09:21.169Z,89.40
2017-07-03T05:11:49.409Z,89.50
2017-07-03T05:14:16.884Z,89.50
2017-07-03T05:16:44.372Z,89.60
2017-07-03T05:19:11.844Z,89.40
2017-07-03T05:21:39.626Z,88.70
2017-07-03T05:24:07.121Z,89.30
2017-07-03T05:26:34.946Z,89.10
2017-07-03T05:29:02.461Z,89.20
2017-07-03T05:31:30.774Z,88.20
2017-07-03T05:33:58.244Z,88.20
2017-07-03T05:36:25.713Z,88.60
2017-07-03T05:38:53.200Z,88.50
2017-07-03T05:41:20.713Z,89.50
2017-07-03T05:44:06.004Z,89.00
2017-07-03T05:46:33.536Z,88.30
2017-07-03T05:49:01.004Z,87.90
2017-07-03T05:51:28.497Z,88.80
2017-07-03T05:53:55.965Z,88.00
2017-07-03T05:56:24.513Z,87.90
2017-07-03T05:58:52.010Z,88.10
2017-07-03T06:01:20.249Z,86.70
2017-07-03T06:03:47.725Z,86.70
2017-07-03T06:06:15.220Z,87.40
2017-07-03T06:08:42.693Z,87.70
2017-07-03T06:11:10.185Z,87.50
2017-07-03T06:13:37.677Z,87.20
2017-07-03T06:16:05.162Z,87.80
2017-07-03T06:18:32.673Z,87.10
2017-07-03T06:21:00.173Z,86.00
2017-07-03T06:23:27.641Z,85.60
2017-07-03T06:25:55.112Z,86.20
2017-07-03T06:28:22.609Z,85.70
2017-07-03T06:30:50.849Z,86.10
2017-07-03T06:33:18.321Z,86.20
2017-07-03T06:35:45.808Z,85.40
2017-07-03T06:38:14.050Z,82.80
2017-07-03T06:40:42.299Z,82.70
2017-07-03T06:43:09.789Z,84.10
2017-07-03T06:45:37.264Z,84.40
2017-07-03T06:48:05.514Z,82.90
2017-07-03T06:50:33.021Z,82.70
2017-07-03T06:53:00.497Z,82.40
2017-07-03T06:55:28.016Z,81.10
2017-07-03T06:57:56.542Z,81.10
2017-07-03T07:00:24.013Z,81.10
2017-07-03T07:02:51.484Z,79.70
2017-07-03T07:05:18.976Z,82.40
2017-07-03T07:07:47.213Z,80.70
2017-07-03T07:10:14.685Z,80.50
2017-07-03T07:12:42.190Z,80.20
2017-07-03T07:15:09.965Z,81.70
2017-07-03T07:17:37.448Z,81.20
2017-07-03T07:20:05.186Z,82.90
2017-07-03T07:22:32.664Z,80.50
2017-07-03T07:25:00.197Z,79.60
2017-07-03T07:27:27.717Z,78.70
2017-07-03T07:29:55.957Z,78.20
2017-07-03T07:32:23.435Z,78.20
2017-07-03T07:34:50.933Z,78.80
2017-07-03T07:37:18.413Z,78.80
2017-07-03T07:39:45.881Z,77.50
2017-07-03T07:42:13.385Z,81.10
2017-07-03T07:44:41.629Z,74.70
2017-07-03T07:47:09.100Z,75.30
2017-07-03T07:49:36.592Z,74.30
2017-07-03T07:52:04.061Z,72.30
2017-07-03T07:54:31.544Z,71.60
2017-07-03T07:56:59.053Z,70.80
2017-07-03T07:59:26.526Z,73.10
2017-07-03T08:01:54.048Z,71.30
2017-07-03T08:04:22.304Z,70.90
2017-07-03T08:06:49.786Z,70.90
2017-07-03T08:09:18.025Z,70.60
2017-07-03T08:11:46.441Z,70.60
2017-07-03T08:14:14.969Z,70.70
2017-07-03T08:16:42.529Z,70.70
2017-07-03T08:19:10.024Z,69.50
2017-07-03T08:21:37.501Z,69.80
2017-07-03T08:24:05.740Z,69.20
2017-07-03T08:26:33.244Z,69.20
2017-07-03T08:29:00.787Z,68.20
2017-07-03T08:31:29.027Z,69.20
2017-07-03T08:33:56.518Z,69.10
2017-07-03T08:36:24.755Z,67.70
2017-07-03T08:38:52.226Z,67.60
2017-07-03T08:41:19.717Z,68.70
2017-07-03T08:43:47.952Z,69.90
2017-07-03T08:46:15.421Z,69.70
2017-07-03T08:48:42.911Z,70.10
2017-07-03T08:51:11.144Z,70.50
2017-07-03T08:53:38.613Z,70.50
2017-07-03T08:56:06.109Z,69.60
2017-07-03T08:58:33.580Z,67.60
2017-07-03T09:01:01.053Z,67.10
2017-07-03T09:03:28.550Z,67.00
2017-07-03T09:05:56.786Z,66.40
2017-07-03T09:08:24.260Z,66.20
2017-07-03T09:10:51.752Z,65.00
2017-07-03T09:13:19.989Z,63.50
2017-07-03T09:15:47.456Z,63.50
2017-07-03T09:18:14.964Z,63.80
2017-07-03T09:20:42.442Z,63.70
2017-07-03T09:23:09.916Z,63.20
2017-07-03T09:25:37.405Z,62.30
2017-07-03T09:28:05.637Z,62.30
2017-07-03T09:30:33.114Z,61.80
2017-07-03T09:33:00.614Z,62.90
2017-07-03T09:35:28.086Z,63.40
2017-07-03T09:37:55.560Z,63.40
2017-07-03T09:40:23.057Z,62.00
2017-07-03T09:42:51.301Z,61.30
2017-07-03T09:45:18.770Z,61.30
2017-07-03T09:47:46.261Z,60.30
2017-07-03T09:50:14.498Z,60.60
2017-07-03T09:52:41.972Z,60.60
2017-07-03T09:55:09.482Z,59.80
2017-07-03T09:57:36.957Z,59.60
2017-07-03T10:00:04.500Z,59.10
2017-07-03T10:02:31.993Z,57.90
2017-07-03T10:04:59.463Z,60.60
2017-07-03T10:07:26.933Z,58.60
2017-07-03T10:09:55.193Z,58.20
2017-07-03T10:12:22.665Z,58.20
2017-07-03T10:14:50.952Z,59.00
2017-07-03T10:17:18.450Z,59.00
2017-07-03T10:19:45.917Z,57.70
2017-07-03T10:22:13.384Z,56.30
2017-07-03T10:24:40.889Z,54.50
2017-07-03T10:27:08.356Z,56.00
2017-07-03T10:29:35.824Z,55.30
2017-07-03T10:32:03.383Z,55.60
2017-07-03T10:34:30.852Z,53.30
2017-07-03T10:36:58.322Z,53.50
2017-07-03T10:39:26.064Z,52.40
2017-07-03T10:41:53.573Z,51.80
2017-07-03T10:44:21.825Z,53.90
2017-07-03T10:46:49.317Z,54.00
2017-07-03T10:49:17.580Z,50.40
2017-07-03T10:51:45.820Z,45.90
2017-07-03T10:54:13.325Z,45.90
2017-07-03T10:56:41.560Z,52.90
2017-07-03T10:59:09.033Z,52.80
2017-07-03T11:01:36.523Z,52.70
2017-07-03T11:04:03.989Z,49.70
2017-07-03T11:06:31.465Z,52.00
2017-07-03T11:08:58.960Z,48.60
2017-07-03T11:11:26.532Z,45.80
2017-07-03T11:13:54.773Z,44.00
2017-07-03T11:16:22.270Z,44.60
2017-07-03T11:18:50.508Z,49.00
2017-07-03T11:21:17.977Z,48.90
2017-07-03T11:23:45.477Z,46.60
2017-07-03T11:26:12.948Z,47.80
2017-07-03T11:28:40.417Z,45.10
2017-07-03T11:31:07.905Z,43.10
2017-07-03T11:33:35.377Z,43.80
2017-07-03T11:36:02.844Z,48.30
2017-07-03T11:38:31.101Z,41.50
2017-07-03T11:40:58.620Z,41.50
2017-07-03T11:43:26.133Z,45.70
2017-07-03T11:45:54.787Z,42.10
2017-07-03T11:48:22.269Z,42.10
2017-07-03T11:50:50.508Z,46.40
2017-07-03T11:53:18.033Z,46.80
2017-07-03T11:55:45.512Z,47.10
2017-07-03T11:58:12.981Z,46.20
2017-07-03T12:00:40.473Z,47.70
2017-07-03T12:03:08.729Z,52.30
2017-07-03T12:05:36.210Z,51.60
2017-07-03T12:08:04.469Z,43.70
2017-07-03T12:10:32.108Z,43.70
2017-07-03T12:12:59.583Z,44.10
2017-07-03T12:15:27.183Z,44.50
2017-07-03T12:17:54.681Z,43.80
2017-07-03T12:20:22.626Z,41.30
2017-07-03T12:22:50.116Z,43.30
2017-07-03T12:25:17.587Z,43.10
2017-07-03T12:27:45.230Z,42.00
2017-07-03T12:30:13.542Z,43.70
2017-07-03T12:32:41.070Z,43.70
2017-07-03T12:35:08.544Z,45.60
2017-07-03T12:37:36.042Z,45.80
2017-07-03T12:40:03.517Z,49.60
2017-07-03T12:42:30.997Z,46.30
2017-07-03T12:44:58.489Z,45.40
2017-07-03T12:47:26.780Z,50.00
2017-07-03T12:49:54.349Z,50.00
2017-07-03T12:52:21.850Z,47.30
2017-07-03T12:54:49.584Z,47.00
2017-07-03T12:57:17.104Z,49.20
2017-07-03T12:59:45.407Z,47.40
2017-07-03T13:02:12.881Z,47.40
2017-07-03T13:04:40.377Z,46.30
2017-07-03T13:07:07.932Z,47.50
2017-07-03T13:09:35.409Z,45.80
2017-07-03T13:12:02.942Z,46.40
2017-07-03T13:14:30.485Z,43.10
2017-07-03T13:16:57.956Z,46.60
2017-07-03T13:19:25.426Z,48.10
2017-07-03T13:21:53.700Z,45.80
2017-07-03T13:24:21.170Z,45.70
2017-07-03T13:26:49.412Z,46.80
2017-07-03T13:29:16.900Z,46.80
2017-07-03T13:31:45.132Z,44.30
2017-07-03T13:34:12.605Z,44.30
2017-07-03T13:36:40.189Z,48.10
2017-07-03T13:39:08.426Z,45.30
2017-07-03T13:41:35.903Z,45.40
2017-07-03T13:44:03.397Z,45.60
2017-07-03T13:46:31.633Z,46.20
2017-07-03T13:48:59.101Z,46.20
2017-07-03T13:51:26.592Z,48.30
2017-07-03T13:53:54.060Z,49.60
2017-07-03T13:56:21.529Z,47.80
2017-07-03T14:01:22.931Z,46.30
2017-07-03T14:03:50.423Z,47.50
2017-07-03T14:06:17.893Z,47.40
2017-07-03T14:08:45.361Z,48.20
2017-07-03T14:11:12.863Z,48.90
2017-07-03T14:13:40.335Z,45.30
2017-07-03T14:16:08.598Z,44.90
2017-07-03T14:18:36.094Z,44.90
2017-07-03T14:21:03.564Z,46.20
2017-07-03T14:23:31.065Z,46.70
2017-07-03T14:25:58.897Z,47.00
2017-07-03T14:28:26.402Z,48.40
2017-07-03T14:30:54.640Z,45.30
2017-07-03T14:33:22.134Z,45.30
2017-07-03T14:35:50.368Z,44.50
2017-07-03T14:38:17.838Z,44.30
2017-07-03T14:40:45.331Z,45.20
2017-07-03T14:43:13.569Z,45.60
2017-07-03T14:45:41.036Z,45.40
2017-07-03T14:48:08.968Z,44.40
2017-07-03T14:50:36.500Z,47.50
2017-07-03T14:53:04.013Z,47.10
2017-07-03T14:55:31.605Z,46.70
2017-07-03T14:57:59.842Z,44.00
2017-07-03T15:00:27.375Z,44.00
2017-07-03T15:02:55.227Z,45.40
2017-07-03T15:05:22.791Z,44.80
2017-07-03T15:07:50.351Z,43.50
2017-07-03T15:10:17.912Z,44.30
2017-07-03T15:12:45.386Z,43.20
2017-07-03T15:15:12.869Z,45.50
2017-07-03T15:17:40.466Z,45.60
2017-07-03T15:20:07.941Z,46.10
2017-07-03T15:22:35.513Z,47.00
2017-07-03T15:25:02.997Z,46.20
2017-07-03T15:27:30.472Z,46.80
2017-07-03T15:29:58.104Z,44.70
2017-07-03T15:32:25.701Z,45.20
2017-07-03T15:34:53.245Z,43.20
2017-07-03T15:37:20.764Z,45.40
2017-07-03T15:39:48.292Z,45.40
2017-07-03T15:42:15.773Z,46.20
2017-07-03T15:44:48.734Z,43.90
2017-07-03T15:47:16.465Z,45.80
2017-07-03T15:49:43.981Z,45.80
2017-07-03T15:52:11.604Z,42.90
2017-07-03T15:54:39.906Z,44.50
2017-07-03T15:57:07.497Z,44.50
2017-07-03T15:59:34.969Z,44.20
2017-07-03T16:02:03.267Z,45.20
2017-07-03T16:04:30.801Z,45.80
2017-07-03T16:06:58.329Z,45.00
2017-07-03T16:09:25.852Z,45.50
2017-07-03T16:11:54.372Z,46.40
2017-07-03T16:14:21.845Z,46.40
2017-07-03T16:16:49.332Z,45.30
2017-07-03T16:19:16.826Z,46.00
2017-07-03T16:21:44.308Z,46.80
2017-07-03T16:24:12.060Z,45.50
2017-07-03T16:26:39.833Z,45.30
2017-07-03T16:29:07.411Z,47.10
2017-07-03T16:31:34.901Z,46.00
2017-07-03T16:34:03.170Z,46.80
2017-07-03T16:36:31.442Z,47.30
2017-07-03T16:38:58.948Z,46.70
2017-07-03T16:41:26.425Z,47.20
2017-07-03T16:43:53.902Z,47.30
2017-07-03T16:46:21.628Z,46.90
2017-07-03T16:48:49.104Z,48.20
2017-07-03T16:51:16.575Z,47.70
2017-07-03T16:53:44.070Z,46.40
2017-07-03T16:56:11.541Z,46.40
2017-07-03T16:58:39.030Z,46.40
2017-07-03T17:01:06.525Z,47.60
2017-07-03T17:03:34.768Z,46.80
2017-07-03T17:06:02.243Z,46.70
2017-07-03T17:08:29.741Z,46.70
2017-07-03T17:10:57.217Z,47.60
2017-07-03T17:13:24.694Z,46.40
2017-07-03T17:15:52.185Z,45.80
2017-07-03T17:18:20.423Z,45.80
2017-07-03T17:20:47.909Z,45.20
2017-07-03T17:23:15.401Z,46.30
2017-07-03T17:25:42.873Z,47.20
2017-07-03T17:28:10.344Z,46.60
2017-07-03T17:30:37.849Z,46.70
2017-07-03T17:33:06.124Z,48.40
2017-07-03T17:35:34.361Z,47.20
2017-07-03T17:38:02.269Z,46.80
2017-07-03T17:40:30.605Z,47.00
2017-07-03T17:42:58.889Z,46.90
2017-07-03T17:45:26.398Z,46.90
2017-07-03T17:47:54.086Z,46.70
2017-07-03T17:50:21.565Z,46.90
2017-07-03T17:52:49.076Z,47.10
2017-07-03T17:55:16.549Z,46.80
2017-07-03T17:57:44.020Z,47.50
2017-07-03T18:00:11.510Z,47.60
2017-07-03T18:02:38.985Z,49.00
2017-07-03T18:05:07.220Z,48.20
2017-07-03T18:07:34.717Z,48.20
2017-07-03T18:10:02.957Z,48.50
2017-07-03T18:12:30.433Z,48.50
2017-07-03T18:14:57.929Z,49.00
2017-07-03T18:17:25.420Z,49.60
2017-07-03T18:19:52.921Z,48.90
2017-07-03T18:22:21.190Z,49.80
2017-07-03T18:24:48.660Z,49.10
2017-07-03T18:27:16.897Z,50.20
2017-07-03T18:29:44.397Z,49.50
2017-07-03T18:32:11.940Z,49.60
2017-07-03T18:34:40.177Z,50.10
2017-07-03T18:37:07.710Z,50.10
2017-07-03T18:39:35.177Z,50.60
2017-07-03T18:42:02.648Z,51.00
2017-07-03T18:44:30.148Z,51.30
2017-07-03T18:46:59.042Z,53.20
2017-07-03T18:49:26.525Z,53.10
2017-07-03T18:51:54.054Z,53.50
2017-07-03T18:54:22.329Z,54.20
2017-07-03T18:56:50.646Z,54.50
2017-07-03T18:59:19.913Z,54.50
2017-07-03T19:01:48.938Z,54.80
2017-07-03T19:04:16.455Z,54.90
2017-07-03T19:06:44.764Z,55.10
2017-07-03T19:09:12.563Z,55.10
2017-07-03T19:11:40.225Z,55.50
2017-07-03T19:14:08.426Z,55.60
2017-07-03T19:16:36.709Z,56.40
2017-07-03T19:19:04.949Z,56.40
2017-07-03T19:21:32.445Z,56.40
2017-07-03T19:24:00.760Z,57.20
2017-07-03T19:26:28.254Z,57.20
2017-07-03T19:28:55.847Z,57.40
2017-07-03T19:31:24.397Z,58.50
2017-07-03T19:33:52.424Z,58.40
2017-07-03T19:36:19.985Z,59.00
2017-07-03T19:38:47.601Z,59.50
2017-07-03T19:41:15.845Z,60.40
2017-07-03T19:43:43.393Z,60.40
2017-07-03T19:46:10.918Z,62.10
2017-07-03T19:48:38.426Z,63.00
2017-07-03T19:51:05.970Z,63.40
2017-07-03T19:53:33.477Z,64.10
2017-07-03T19:56:01.751Z,63.80
2017-07-03T19:58:30.166Z,64.90
2017-07-03T20:00:57.674Z,64.80
2017-07-03T20:03:25.955Z,65.70
2017-07-03T20:05:54.229Z,66.40
2017-07-03T20:08:22.468Z,66.30
2017-07-03T20:10:49.937Z,66.60
2017-07-03T20:13:17.435Z,68.70
2017-07-03T20:15:45.674Z,71.60
2017-07-03T20:18:13.149Z,71.60
2017-07-03T20:20:41.429Z,71.10
2017-07-03T20:23:09.705Z,71.10
2017-07-03T20:25:37.940Z,72.20
2017-07-03T20:28:05.429Z,71.50
2017-07-03T20:30:33.039Z,69.30
2017-07-03T20:33:00.517Z,70.30
2017-07-03T20:35:28.261Z,71.10
2017-07-03T20:37:55.733Z,71.70
2017-07-03T20:40:23.204Z,71.90
2017-07-03T20:42:50.693Z,72.10
2017-07-03T20:45:18.185Z,73.30
2017-07-03T20:47:45.701Z,74.00
2017-07-03T20:50:13.957Z,74.00
2017-07-03T20:52:41.686Z,74.00
2017-07-03T20:55:09.164Z,74.00
2017-07-03T20:57:36.658Z,74.00
2017-07-03T21:00:04.901Z,74.40
2017-07-03T21:02:32.374Z,74.20
2017-07-03T21:04:59.873Z,74.20
2017-07-03T21:07:27.343Z,74.50
2017-07-03T21:09:54.822Z,74.90
2017-07-03T21:12:22.308Z,75.40
2017-07-03T21:14:49.874Z,76.20
2017-07-03T21:17:18.113Z,75.30
2017-07-03T21:19:45.617Z,75.20
2017-07-03T21:22:14.068Z,76.40
2017-07-03T21:24:41.543Z,76.40
2017-07-03T21:27:09.041Z,75.90
2017-07-03T21:29:36.512Z,75.20
2017-07-03T21:32:03.981Z,75.90
2017-07-03T21:34:31.469Z,76.30
2017-07-03T21:36:58.941Z,77.20
2017-07-03T21:39:27.177Z,78.20
2017-07-03T21:41:54.666Z,78.20
2017-07-03T21:44:22.908Z,77.60
2017-07-03T21:46:50.381Z,77.50
2017-07-03T21:49:17.953Z,77.50
2017-07-03T21:51:46.193Z,78.30
2017-07-03T21:54:13.664Z,78.20
2017-07-03T21:56:41.217Z,77.90
2017-07-03T21:59:08.689Z,78.90
2017-07-03T22:01:36.160Z,78.20
2017-07-03T22:04:04.438Z,77.60
2017-07-03T22:06:32.704Z,78.80
2017-07-03T22:09:01.237Z,78.90
2017-07-03T22:11:29.116Z,78.90
2017-07-03T22:13:56.585Z,78.70
2017-07-03T22:16:24.053Z,80.30
2017-07-03T22:18:51.597Z,80.40
2017-07-03T22:21:19.065Z,80.60
2017-07-03T22:23:46.533Z,81.10
2017-07-03T22:26:14.038Z,81.20
2017-07-03T22:28:41.508Z,80.60
2017-07-03T22:31:08.981Z,81.50
2017-07-03T22:33:36.468Z,81.00
2017-07-03T22:36:03.938Z,81.30
2017-07-03T22:38:31.413Z,80.60
2017-07-03T22:40:59.250Z,80.40
2017-07-03T22:43:27.497Z,81.40
2017-07-03T22:45:55.126Z,81.20
2017-07-03T22:48:22.629Z,81.40
2017-07-03T22:50:50.100Z,81.10
2017-07-03T22:53:18.333Z,81.40
2017-07-03T22:55:45.826Z,81.50
2017-07-03T22:58:13.297Z,81.40
2017-07-03T23:00:41.533Z,82.20
2017-07-03T23:03:09.021Z,82.20
2017-07-03T23:05:37.257Z,82.40
2017-07-03T23:08:04.729Z,82.30
2017-07-03T23:10:32.217Z,82.40
2017-07-03T23:13:00.453Z,82.50
2017-07-03T23:15:27.920Z,82.40
2017-07-03T23:17:55.409Z,82.40
2017-07-03T23:20:23.648Z,82.10
2017-07-03T23:22:51.117Z,82.00
2017-07-03T23:25:18.604Z,82.70
2017-07-03T23:27:46.077Z,82.70
2017-07-03T23:30:13.600Z,83.20
2017-07-03T23:32:42.132Z,84.30
2017-07-03T23:35:09.601Z,83.70
2017-07-03T23:37:37.069Z,84.30
2017-07-03T23:40:04.560Z,85.00
2017-07-03T23:42:32.113Z,85.20
2017-07-03T23:45:00.348Z,85.40
2017-07-03T23:47:27.841Z,85.20
2017-07-03T23:49:55.313Z,85.20
2017-07-03T23:52:23.552Z,84.70
2017-07-03T23:54:51.040Z,84.70
2017-07-03T23:57:19.276Z,85.40
2017-07-03T23:59:47.025Z,85.40
